Time;durP1;ratioP1;P1;durP2;ratioP2;P2;SDS_P1;SDS_P2;PMS_P1;PMS_P2;Temp;Humidity;BMP_temperature;BMP_pressure;BME280_temperature;BME280_humidity;BME280_pressure;Samples;Min_cycle;Max_cycle;Signal;HPM_P1;HPM_P2
2022/10/25 00:00:27;;;;;;;88.22;34.03;;;;;;;;;;6265107;28;20059;-76
2022/10/25 00:03:48;;;;;;;83.65;29.60;;;;;;;;;;6282408;28;20067;-74
2022/10/25 00:06:49;;;;;;;77.55;28.35;;;;;;;;;;6279147;28;20620;-71
2022/10/25 00:09:49;;;;;;;78.95;30.15;;;;;;;;;;6271800;28;20135;-72
2022/10/25 00:12:50;;;;;;;73.50;28.98;;;;;;;;;;6270235;28;20049;-70
2022/10/25 00:15:50;;;;;;;119.70;55.08;;;;;;;;;;6277234;28;20076;-77
2022/10/25 00:18:51;;;;;;;91.40;33.42;;;;;;;;;;6292611;28;20410;-69
2022/10/25 00:21:52;;;;;;;90.63;30.80;;;;;;;;;;6277304;28;20049;-75
2022/10/25 00:24:52;;;;;;;83.78;29.25;;;;;;;;;;6278092;28;20052;-74
2022/10/25 00:27:53;;;;;;;77.20;30.53;;;;;;;;;;6271929;28;20440;-76
2022/10/25 00:31:05;;;;;;;82.20;28.98;;;;;;;;;;6267057;28;20068;-75
2022/10/25 00:34:05;;;;;;;77.63;28.90;;;;;;;;;;6268637;28;20049;-77
2022/10/25 00:37:06;;;;;;;72.60;27.25;;;;;;;;;;6272338;28;20091;-72
2022/10/25 00:40:07;;;;;;;76.35;27.00;;;;;;;;;;6294811;28;20048;-77
2022/10/25 00:43:08;;;;;;;74.13;26.42;;;;;;;;;;6284172;28;20042;-74
2022/10/25 00:46:35;;;;;;;73.03;25.98;;;;;;;;;;6273909;28;20187;-71
2022/10/25 00:49:36;;;;;;;80.70;27.90;;;;;;;;;;6265917;28;20511;-77
2022/10/25 00:52:38;;;;;;;74.65;27.23;;;;;;;;;;6268920;28;20052;-68
2022/10/25 00:55:44;;;;;;;79.95;28.83;;;;;;;;;;6270908;28;20370;-73
2022/10/25 00:58:49;;;;;;;77.00;28.33;;;;;;;;;;6270020;28;20052;-76
2022/10/25 01:01:52;;;;;;;81.75;29.55;;;;;;;;;;6271634;28;20049;-69
2022/10/25 01:04:53;;;;;;;83.18;30.35;;;;;;;;;;6264616;28;20049;-67
2022/10/25 01:07:54;;;;;;;80.72;28.45;;;;;;;;;;6278688;28;20494;-64
2022/10/25 01:10:55;;;;;;;80.53;28.65;;;;;;;;;;6294420;28;20448;-78
2022/10/25 01:13:56;;;;;;;84.07;32.08;;;;;;;;;;6271257;28;20082;-77
2022/10/25 01:17:36;;;;;;;75.30;28.05;;;;;;;;;;6270612;28;20482;-72
2022/10/25 01:21:03;;;;;;;76.63;27.42;;;;;;;;;;6264188;28;20426;-76
2022/10/25 01:24:10;;;;;;;76.22;27.35;;;;;;;;;;6268284;28;20155;-77
2022/10/25 01:27:45;;;;;;;83.18;28.90;;;;;;;;;;6269741;28;20060;-77
2022/10/25 01:31:17;;;;;;;78.32;28.67;;;;;;;;;;6263868;28;20706;-74
2022/10/25 01:34:38;;;;;;;77.00;28.23;;;;;;;;;;6267206;28;20419;-76
2022/10/25 01:37:52;;;;;;;79.28;28.38;;;;;;;;;;6267268;28;20222;-73
2022/10/25 01:41:21;;;;;;;82.55;30.33;;;;;;;;;;6269077;28;20048;-74
2022/10/25 01:44:22;;;;;;;83.30;31.23;;;;;;;;;;6255479;28;20483;-75
2022/10/25 01:47:30;;;;;;;79.53;27.95;;;;;;;;;;6269580;28;20041;-74
2022/10/25 01:50:34;;;;;;;83.32;29.60;;;;;;;;;;6270671;28;20052;-73
2022/10/25 01:53:50;;;;;;;89.55;31.50;;;;;;;;;;6282842;28;20524;-77
2022/10/25 01:57:27;;;;;;;83.68;28.83;;;;;;;;;;6286127;28;20107;-75
2022/10/25 02:00:33;;;;;;;83.38;31.08;;;;;;;;;;6267367;28;20048;-76
2022/10/25 02:03:42;;;;;;;87.05;30.98;;;;;;;;;;6266146;28;20740;-77
2022/10/25 02:07:00;;;;;;;81.32;29.33;;;;;;;;;;6266880;28;20057;-73
2022/10/25 02:10:15;;;;;;;89.57;30.42;;;;;;;;;;6267530;28;20102;-73
2022/10/25 02:13:25;;;;;;;80.00;29.95;;;;;;;;;;6264964;28;20143;-75
2022/10/25 02:16:52;;;;;;;80.13;28.33;;;;;;;;;;6270761;28;20053;-72
2022/10/25 02:19:57;;;;;;;86.97;35.97;;;;;;;;;;6285770;28;20055;-74
2022/10/25 02:23:00;;;;;;;89.88;29.23;;;;;;;;;;6264537;28;20080;-75
2022/10/25 02:26:01;;;;;;;;;;;;;;;;;;6266525;28;20079;-76
2022/10/25 02:29:05;;;;;;;73.15;28.05;;;;;;;;;;6266014;28;19947;-69
2022/10/25 02:32:06;;;;;;;82.45;29.25;;;;;;;;;;6267359;28;20146;-75
2022/10/25 02:35:13;;;;;;;93.60;32.13;;;;;;;;;;6266636;28;20140;-72
2022/10/25 02:38:14;;;;;;;84.97;31.15;;;;;;;;;;6268552;28;20048;-71
2022/10/25 02:41:15;;;;;;;82.15;29.35;;;;;;;;;;6268681;28;20863;-74
2022/10/25 02:44:16;;;;;;;82.97;30.07;;;;;;;;;;6267292;28;20480;-73
2022/10/25 02:47:16;;;;;;;88.22;33.88;;;;;;;;;;6269056;28;20298;-76
2022/10/25 02:50:17;;;;;;;87.47;32.17;;;;;;;;;;6267960;28;20090;-75
2022/10/25 02:53:17;;;;;;;81.68;30.80;;;;;;;;;;6268642;28;20064;-75
2022/10/25 02:56:20;;;;;;;89.50;33.17;;;;;;;;;;6269869;28;20045;-71
2022/10/25 02:59:21;;;;;;;84.65;29.20;;;;;;;;;;6268503;28;20150;-71
2022/10/25 03:02:21;;;;;;;92.03;33.22;;;;;;;;;;6274788;28;20048;-77
2022/10/25 03:05:22;;;;;;;82.05;28.90;;;;;;;;;;6273243;28;20554;-73
2022/10/25 03:08:24;;;;;;;87.60;34.80;;;;;;;;;;6277479;28;20042;-75
2022/10/25 03:11:24;;;;;;;81.70;29.25;;;;;;;;;;6268677;28;20488;-71
2022/10/25 03:14:25;;;;;;;85.28;30.65;;;;;;;;;;6264832;28;20047;-76
2022/10/25 03:17:25;;;;;;;93.20;32.70;;;;;;;;;;6268794;28;20049;-69
2022/10/25 03:20:26;;;;;;;95.90;32.35;;;;;;;;;;6267894;28;20048;-75
2022/10/25 03:23:27;;;;;;;86.18;29.30;;;;;;;;;;6274536;28;20047;-76
2022/10/25 03:26:28;;;;;;;84.00;31.17;;;;;;;;;;6265117;28;20041;-73
2022/10/25 03:29:28;;;;;;;91.30;31.65;;;;;;;;;;6264736;28;20088;-64
2022/10/25 03:32:29;;;;;;;81.70;28.48;;;;;;;;;;6261380;28;20068;-74
2022/10/25 03:35:29;;;;;;;84.82;29.08;;;;;;;;;;6261388;28;20068;-72
2022/10/25 03:38:30;;;;;;;81.80;28.95;;;;;;;;;;6264557;28;20048;-75
2022/10/25 03:41:30;;;;;;;81.38;27.08;;;;;;;;;;6266746;28;20065;-67
2022/10/25 03:44:31;;;;;;;79.82;27.08;;;;;;;;;;6271051;28;20143;-75
2022/10/25 03:47:31;;;;;;;77.18;26.88;;;;;;;;;;6274120;28;20036;-75
2022/10/25 03:50:32;;;;;;;83.55;28.27;;;;;;;;;;6270812;28;20071;-76
2022/10/25 03:53:33;;;;;;;90.68;31.48;;;;;;;;;;6269502;28;20128;-74
2022/10/25 03:56:33;;;;;;;78.70;26.95;;;;;;;;;;6272103;28;20044;-73
2022/10/25 03:59:34;;;;;;;82.13;32.03;;;;;;;;;;6272987;28;20117;-75
2022/10/25 04:02:34;;;;;;;75.85;25.17;;;;;;;;;;6272304;28;20061;-77
2022/10/25 04:05:35;;;;;;;71.22;25.83;;;;;;;;;;6267177;28;20134;-68
2022/10/25 04:08:36;;;;;;;76.15;25.00;;;;;;;;;;6272967;28;20041;-75
2022/10/25 04:11:37;;;;;;;70.47;26.60;;;;;;;;;;6272981;28;20448;-70
2022/10/25 04:14:38;;;;;;;68.30;25.40;;;;;;;;;;6268814;28;20045;-77
2022/10/25 04:17:39;;;;;;;67.30;24.73;;;;;;;;;;6268631;28;20845;-77
2022/10/25 04:20:39;;;;;;;64.47;21.55;;;;;;;;;;6269819;28;20523;-75
2022/10/25 04:23:40;;;;;;;63.55;22.90;;;;;;;;;;6270750;28;20064;-73
2022/10/25 04:26:40;;;;;;;58.58;24.40;;;;;;;;;;6287908;28;20056;-70
2022/10/25 04:29:41;;;;;;;59.20;23.30;;;;;;;;;;6288891;28;20104;-76
2022/10/25 04:32:41;;;;;;;63.20;21.75;;;;;;;;;;6271769;28;20044;-76
2022/10/25 04:35:42;;;;;;;59.90;21.73;;;;;;;;;;6269373;28;20048;-76
2022/10/25 04:38:42;;;;;;;60.97;22.00;;;;;;;;;;6282547;28;20049;-69
2022/10/25 04:41:43;;;;;;;60.58;20.67;;;;;;;;;;6267273;28;20037;-78
2022/10/25 04:44:44;;;;;;;64.75;23.70;;;;;;;;;;6266988;28;20408;-70
2022/10/25 04:47:44;;;;;;;57.38;20.60;;;;;;;;;;6269658;28;20460;-75
2022/10/25 04:50:46;;;;;;;53.92;20.00;;;;;;;;;;6267392;28;20063;-77
2022/10/25 04:53:47;;;;;;;56.00;21.17;;;;;;;;;;6247046;28;20474;-76
2022/10/25 04:56:47;;;;;;;62.67;22.30;;;;;;;;;;6269356;28;20044;-71
2022/10/25 04:59:48;;;;;;;66.03;23.55;;;;;;;;;;6271184;28;20399;-66
2022/10/25 05:02:53;;;;;;;53.17;22.45;;;;;;;;;;6268612;28;20053;-76
2022/10/25 05:05:54;;;;;;;58.25;22.20;;;;;;;;;;6265558;28;20140;-70
2022/10/25 05:08:54;;;;;;;62.13;22.25;;;;;;;;;;6279681;28;20056;-74
2022/10/25 05:11:55;;;;;;;62.88;21.70;;;;;;;;;;6289625;28;20049;-75
2022/10/25 05:14:55;;;;;;;70.30;23.08;;;;;;;;;;6268183;28;20089;-64
2022/10/25 05:17:59;;;;;;;65.97;23.88;;;;;;;;;;6268910;28;20041;-77
2022/10/25 05:21:04;;;;;;;71.25;24.02;;;;;;;;;;6266618;28;20045;-68
2022/10/25 05:24:05;;;;;;;65.20;24.23;;;;;;;;;;6262020;28;20140;-66
2022/10/25 05:27:05;;;;;;;64.18;25.02;;;;;;;;;;6261617;28;20057;-67
2022/10/25 05:30:06;;;;;;;60.75;22.35;;;;;;;;;;6266631;28;21445;-74
2022/10/25 05:33:07;;;;;;;65.90;23.25;;;;;;;;;;6267130;28;20049;-74
2022/10/25 05:36:08;;;;;;;62.10;22.33;;;;;;;;;;6266240;28;20049;-73
2022/10/25 05:39:08;;;;;;;66.13;22.80;;;;;;;;;;6268029;28;20053;-68
2022/10/25 05:42:09;;;;;;;71.15;24.40;;;;;;;;;;6266956;28;20073;-73
2022/10/25 05:45:10;;;;;;;61.55;25.25;;;;;;;;;;6267050;28;20499;-70
2022/10/25 05:48:10;;;;;;;71.15;27.70;;;;;;;;;;6251399;28;20890;-68
2022/10/25 05:51:17;;;;;;;89.72;38.20;;;;;;;;;;6267998;28;20078;-76
2022/10/25 05:54:18;;;;;;;73.53;29.88;;;;;;;;;;6267360;28;20051;-76
2022/10/25 05:57:19;;;;;;;73.82;28.23;;;;;;;;;;6269675;28;20159;-75
2022/10/25 06:00:20;;;;;;;68.13;25.02;;;;;;;;;;6267970;28;20841;-73
2022/10/25 06:03:20;;;;;;;73.20;27.75;;;;;;;;;;6265970;28;20044;-78
2022/10/25 06:06:21;;;;;;;57.83;21.33;;;;;;;;;;6266322;28;20044;-75
2022/10/25 06:09:22;;;;;;;86.67;22.20;;;;;;;;;;6268544;28;20045;-71
2022/10/25 06:12:22;;;;;;;52.78;20.20;;;;;;;;;;6267928;28;20043;-77
2022/10/25 06:15:23;;;;;;;66.38;23.95;;;;;;;;;;6266031;28;20502;-69
2022/10/25 06:18:23;;;;;;;70.93;28.98;;;;;;;;;;6272434;28;20041;-77
2022/10/25 06:21:26;;;;;;;61.17;26.98;;;;;;;;;;6269151;28;20058;-76
2022/10/25 06:24:27;;;;;;;88.45;38.53;;;;;;;;;;6264966;28;20128;-76
2022/10/25 06:27:27;;;;;;;64.68;29.48;;;;;;;;;;6268919;28;20444;-64
2022/10/25 06:30:28;;;;;;;60.78;23.70;;;;;;;;;;6270530;28;20307;-64
2022/10/25 06:33:29;;;;;;;60.38;21.75;;;;;;;;;;6281183;28;20049;-66
2022/10/25 06:36:30;;;;;;;56.33;21.50;;;;;;;;;;6273293;28;20072;-76
2022/10/25 06:39:31;;;;;;;53.75;19.65;;;;;;;;;;6268702;28;20061;-67
2022/10/25 06:42:31;;;;;;;49.65;19.02;;;;;;;;;;6266123;28;20487;-73
2022/10/25 06:45:34;;;;;;;52.28;18.70;;;;;;;;;;6265070;28;20094;-75
2022/10/25 06:48:35;;;;;;;49.22;18.67;;;;;;;;;;6265387;28;20071;-76
2022/10/25 06:51:35;;;;;;;46.60;19.10;;;;;;;;;;6269060;28;20048;-71
2022/10/25 06:54:36;;;;;;;55.90;19.85;;;;;;;;;;6265225;28;20043;-76
2022/10/25 06:57:36;;;;;;;55.80;20.77;;;;;;;;;;6267530;28;20051;-75
2022/10/25 07:00:37;;;;;;;56.20;21.75;;;;;;;;;;6267165;28;20044;-78
2022/10/25 07:03:37;;;;;;;65.07;25.45;;;;;;;;;;6264742;28;20054;-77
2022/10/25 07:06:38;;;;;;;59.65;22.02;;;;;;;;;;6270194;28;20384;-71
2022/10/25 07:09:39;;;;;;;61.63;22.50;;;;;;;;;;6285084;28;20094;-68
2022/10/25 07:12:40;;;;;;;61.87;21.47;;;;;;;;;;6290139;28;20131;-68
2022/10/25 07:15:40;;;;;;;58.95;22.08;;;;;;;;;;6290344;28;20494;-73
2022/10/25 07:18:42;;;;;;;62.83;22.20;;;;;;;;;;6294880;28;20077;-75
2022/10/25 07:21:43;;;;;;;63.08;23.58;;;;;;;;;;6296658;28;20539;-71
2022/10/25 07:24:44;;;;;;;63.72;23.35;;;;;;;;;;6295667;28;20068;-75
2022/10/25 07:27:45;;;;;;;52.30;21.15;;;;;;;;;;6296029;28;20055;-75
2022/10/25 07:30:46;;;;;;;54.05;19.58;;;;;;;;;;6296099;28;20139;-73
2022/10/25 07:33:48;;;;;;;51.43;20.60;;;;;;;;;;6294269;28;20159;-78
2022/10/25 07:36:48;;;;;;;60.97;22.30;;;;;;;;;;6295055;28;20483;-77
2022/10/25 07:39:49;;;;;;;63.33;25.70;;;;;;;;;;6296911;28;20056;-69
2022/10/25 07:42:49;;;;;;;59.97;24.02;;;;;;;;;;6294825;28;20044;-78
2022/10/25 07:45:51;;;;;;;84.90;39.70;;;;;;;;;;6292835;28;20105;-71
2022/10/25 07:48:51;;;;;;;73.28;33.10;;;;;;;;;;6274056;28;20139;-74
2022/10/25 07:51:52;;;;;;;68.47;26.05;;;;;;;;;;6270458;28;20053;-70
2022/10/25 07:54:52;;;;;;;76.63;28.23;;;;;;;;;;6269432;28;20572;-72
2022/10/25 07:58:01;;;;;;;69.25;25.73;;;;;;;;;;6265595;28;20060;-71
2022/10/25 08:01:04;;;;;;;70.32;25.42;;;;;;;;;;6278460;28;20586;-66
2022/10/25 08:04:05;;;;;;;72.20;25.80;;;;;;;;;;6287787;28;20052;-78
2022/10/25 08:07:05;;;;;;;72.22;26.52;;;;;;;;;;6293965;28;20051;-77
2022/10/25 08:10:06;;;;;;;70.43;25.38;;;;;;;;;;6295688;28;20048;-70
2022/10/25 08:13:07;;;;;;;69.00;26.10;;;;;;;;;;6295806;28;20102;-74
2022/10/25 08:16:08;;;;;;;78.05;27.20;;;;;;;;;;6294398;28;20045;-72
2022/10/25 08:19:08;;;;;;;72.10;26.20;;;;;;;;;;6282322;28;20041;-77
2022/10/25 08:22:09;;;;;;;62.30;23.30;;;;;;;;;;6270398;28;20049;-69
2022/10/25 08:25:09;;;;;;;55.20;21.05;;;;;;;;;;6268234;28;20072;-69
2022/10/25 08:28:10;;;;;;;46.75;18.70;;;;;;;;;;6270543;28;20072;-64
2022/10/25 08:31:11;;;;;;;48.25;18.95;;;;;;;;;;6267587;28;20045;-71
2022/10/25 08:34:11;;;;;;;46.40;18.33;;;;;;;;;;6268833;28;20392;-68
2022/10/25 08:37:12;;;;;;;44.50;18.58;;;;;;;;;;6271380;28;20045;-61
2022/10/25 08:40:19;;;;;;;45.85;19.17;;;;;;;;;;6271066;28;20102;-63
2022/10/25 08:43:38;;;;;;;63.03;23.85;;;;;;;;;;6271700;28;20140;-75
2022/10/25 08:46:45;;;;;;;50.70;21.67;;;;;;;;;;6265824;28;20070;-77
2022/10/25 08:49:54;;;;;;;58.20;28.17;;;;;;;;;;6289930;28;20050;-78
2022/10/25 08:53:02;;;;;;;60.13;27.85;;;;;;;;;;6286592;28;20547;-72
2022/10/25 08:56:05;;;;;;;50.33;22.92;;;;;;;;;;6271999;28;20474;-78
2022/10/25 08:59:12;;;;;;;46.20;20.60;;;;;;;;;;6267551;28;20069;-76
2022/10/25 09:02:26;;;;;;;44.15;18.00;;;;;;;;;;6265291;28;20048;-77
2022/10/25 09:05:41;;;;;;;55.38;25.25;;;;;;;;;;6270144;28;20045;-64
2022/10/25 09:09:25;;;;;;;41.25;17.85;;;;;;;;;;6266141;28;20073;-76
2022/10/25 09:12:40;;;;;;;48.75;24.25;;;;;;;;;;6269467;28;20045;-70
2022/10/25 09:16:00;;;;;;;42.72;19.60;;;;;;;;;;6272161;28;20094;-74
2022/10/25 09:19:02;;;;;;;42.67;17.10;;;;;;;;;;6268007;28;20479;-73
2022/10/25 09:22:27;;;;;;;43.15;19.40;;;;;;;;;;6269720;28;20079;-75
2022/10/25 09:25:51;;;;;;;46.03;19.20;;;;;;;;;;6268658;28;20648;-73
2022/10/25 09:29:08;;;;;;;43.90;23.67;;;;;;;;;;6268971;28;20502;-73
2022/10/25 09:32:22;;;;;;;83.15;48.72;;;;;;;;;;6269377;28;20045;-71
2022/10/25 09:35:27;;;;;;;45.45;20.42;;;;;;;;;;6271340;28;20081;-76
2022/10/25 09:38:48;;;;;;;49.05;19.58;;;;;;;;;;6266677;28;20409;-77
2022/10/25 09:41:52;;;;;;;66.28;28.77;;;;;;;;;;6269434;28;20144;-78
2022/10/25 09:45:00;;;;;;;53.30;21.55;;;;;;;;;;6268748;28;20045;-71
2022/10/25 09:48:06;;;;;;;57.53;27.40;;;;;;;;;;6265925;28;20049;-77
2022/10/25 09:51:09;;;;;;;47.28;19.45;;;;;;;;;;6266848;28;20456;-76
2022/10/25 09:54:22;;;;;;;50.58;23.70;;;;;;;;;;6269243;28;20415;-75
2022/10/25 09:57:23;;;;;;;52.00;22.75;;;;;;;;;;6267855;28;20534;-75
2022/10/25 10:00:23;;;;;;;58.17;26.00;;;;;;;;;;6277649;28;20048;-78
2022/10/25 10:03:29;;;;;;;55.50;23.85;;;;;;;;;;6272368;28;20074;-77
2022/10/25 10:06:36;;;;;;;66.10;29.67;;;;;;;;;;6268238;28;20454;-70
2022/10/25 10:09:40;;;;;;;65.45;29.10;;;;;;;;;;6270164;28;20044;-75
2022/10/25 10:12:58;;;;;;;73.57;28.42;;;;;;;;;;6267873;28;20179;-75
2022/10/25 10:16:03;;;;;;;65.70;26.65;;;;;;;;;;6269505;28;20053;-77
2022/10/25 10:19:17;;;;;;;54.08;22.10;;;;;;;;;;6266417;28;20464;-76
2022/10/25 10:22:17;;;;;;;50.22;22.05;;;;;;;;;;6266875;28;20082;-78
2022/10/25 10:25:21;;;;;;;47.28;21.52;;;;;;;;;;6267879;28;20041;-70
2022/10/25 10:28:22;;;;;;;52.33;22.15;;;;;;;;;;6265619;28;20056;-78
2022/10/25 10:31:22;;;;;;;46.50;19.80;;;;;;;;;;6268232;28;20045;-78
2022/10/25 10:34:29;;;;;;;43.83;19.80;;;;;;;;;;6283735;28;20040;-74
2022/10/25 10:37:31;;;;;;;49.28;21.60;;;;;;;;;;6290525;28;20130;-78
2022/10/25 10:40:32;;;;;;;;;;;;;;;;;;6293438;28;20068;-73
2022/10/25 10:43:33;;;;;;;51.95;22.40;;;;;;;;;;6289007;28;19946;-78
2022/10/25 10:46:33;;;;;;;49.40;19.35;;;;;;;;;;6290075;28;20505;-64
2022/10/25 10:49:37;;;;;;;45.00;18.35;;;;;;;;;;6292194;28;20444;-71
2022/10/25 10:52:45;;;;;;;46.38;21.67;;;;;;;;;;6288994;28;20049;-77
2022/10/25 10:55:51;;;;;;;41.53;20.20;;;;;;;;;;6268419;28;20139;-76
2022/10/25 10:58:51;;;;;;;42.55;19.48;;;;;;;;;;6266675;28;20048;-70
2022/10/25 11:01:52;;;;;;;51.78;22.52;;;;;;;;;;6265877;28;20064;-71
2022/10/25 11:04:54;;;;;;;44.85;20.33;;;;;;;;;;6267119;28;20057;-77
2022/10/25 11:08:01;;;;;;;46.47;20.55;;;;;;;;;;6264983;28;20059;-73
2022/10/25 11:11:11;;;;;;;45.72;21.00;;;;;;;;;;6267443;28;20056;-67
2022/10/25 11:14:14;;;;;;;46.10;19.98;;;;;;;;;;6277689;28;20075;-77
2022/10/25 11:17:21;;;;;;;38.35;18.77;;;;;;;;;;6287935;28;20049;-75
2022/10/25 11:20:45;;;;;;;39.38;17.52;;;;;;;;;;6272087;28;20591;-71
2022/10/25 11:24:01;;;;;;;41.53;17.10;;;;;;;;;;6255722;28;20044;-75
2022/10/25 11:27:27;;;;;;;30.58;14.45;;;;;;;;;;6259466;28;20914;-73
2022/10/25 11:30:39;;;;;;;35.95;14.73;;;;;;;;;;6265105;28;20372;-73
2022/10/25 11:33:56;;;;;;;27.08;13.75;;;;;;;;;;6249542;28;20141;-74
2022/10/25 11:37:01;;;;;;;30.80;13.55;;;;;;;;;;6251677;28;20060;-66
2022/10/25 11:40:16;;;;;;;31.58;13.32;;;;;;;;;;6254428;28;20056;-78
2022/10/25 11:43:20;;;;;;;25.52;13.73;;;;;;;;;;6250734;28;20123;-76
2022/10/25 11:46:39;;;;;;;31.88;13.85;;;;;;;;;;6252564;28;20123;-69
2022/10/25 11:50:01;;;;;;;28.67;14.00;;;;;;;;;;6248859;28;20080;-75
2022/10/25 11:53:14;;;;;;;32.13;14.82;;;;;;;;;;6250505;28;20056;-74
2022/10/25 11:56:48;;;;;;;31.38;14.25;;;;;;;;;;6249563;28;20089;-70
2022/10/25 12:00:07;;;;;;;30.30;14.27;;;;;;;;;;6249060;28;21048;-71
2022/10/25 12:03:29;;;;;;;32.80;15.27;;;;;;;;;;6248828;28;20052;-66
2022/10/25 12:06:44;;;;;;;33.25;15.48;;;;;;;;;;6256664;28;20135;-70
2022/10/25 12:10:12;;;;;;;33.45;16.98;;;;;;;;;;6256593;28;20187;-66
2022/10/25 12:13:27;;;;;;;32.78;16.27;;;;;;;;;;6256296;28;20574;-66
2022/10/25 12:16:29;;;;;;;32.03;14.73;;;;;;;;;;6263480;28;20483;-66
2022/10/25 12:19:44;;;;;;;30.02;15.38;;;;;;;;;;6279364;28;20052;-65
2022/10/25 12:22:47;;;;;;;29.10;14.85;;;;;;;;;;6256905;28;20435;-68
2022/10/25 12:25:53;;;;;;;41.03;17.65;;;;;;;;;;6259285;28;20041;-66
2022/10/25 12:28:57;;;;;;;28.58;15.05;;;;;;;;;;6254505;28;20057;-71
2022/10/25 12:32:00;;;;;;;29.55;15.10;;;;;;;;;;6254348;28;20071;-79
2022/10/25 12:35:05;;;;;;;30.60;15.60;;;;;;;;;;6252737;28;20548;-68
2022/10/25 12:38:14;;;;;;;30.63;16.13;;;;;;;;;;6254047;28;20071;-68
2022/10/25 12:41:21;;;;;;;28.35;15.40;;;;;;;;;;6250147;28;20483;-64
2022/10/25 12:44:40;;;;;;;31.98;15.45;;;;;;;;;;6251288;28;20081;-69
2022/10/25 12:48:07;;;;;;;29.20;15.75;;;;;;;;;;6251927;28;20076;-64
2022/10/25 12:51:19;;;;;;;28.10;14.68;;;;;;;;;;6252103;28;20051;-64
2022/10/25 12:54:22;;;;;;;26.93;15.57;;;;;;;;;;6256355;28;20056;-65
2022/10/25 12:57:34;;;;;;;25.85;14.63;;;;;;;;;;6249816;28;20066;-69
2022/10/25 13:00:55;;;;;;;;;;;;;;;;;;6251612;28;20805;-65
2022/10/25 13:04:16;;;;;;;28.23;13.52;;;;;;;;;;6253087;28;19929;-66
2022/10/25 13:07:19;;;;;;;29.17;15.23;;;;;;;;;;6251782;28;20049;-68
2022/10/25 13:10:22;;;;;;;31.92;15.35;;;;;;;;;;6251181;28;20135;-66
2022/10/25 13:13:26;;;;;;;31.85;16.58;;;;;;;;;;6252264;28;20049;-67
2022/10/25 13:16:31;;;;;;;33.35;15.55;;;;;;;;;;6250660;28;20164;-67
2022/10/25 13:19:32;;;;;;;28.88;15.20;;;;;;;;;;6253415;28;20519;-65
2022/10/25 13:22:40;;;;;;;32.30;15.10;;;;;;;;;;6249409;28;20041;-63
2022/10/25 13:25:47;;;;;;;34.40;16.02;;;;;;;;;;6251718;28;20128;-62
2022/10/25 13:28:51;;;;;;;32.25;14.60;;;;;;;;;;6251872;28;20503;-64
2022/10/25 13:32:04;;;;;;;30.27;14.18;;;;;;;;;;6247076;28;20159;-67
2022/10/25 13:35:20;;;;;;;28.98;14.75;;;;;;;;;;6255011;28;20624;-65
2022/10/25 13:38:29;;;;;;;30.48;13.70;;;;;;;;;;6253332;28;20119;-65
2022/10/25 13:41:43;;;;;;;30.80;14.15;;;;;;;;;;6250701;28;20247;-66
2022/10/25 13:44:57;;;;;;;30.52;14.55;;;;;;;;;;6251189;28;20048;-66
2022/10/25 13:48:08;;;;;;;28.15;13.70;;;;;;;;;;6252051;28;20525;-66
2022/10/25 13:51:13;;;;;;;26.90;12.90;;;;;;;;;;6245354;28;20084;-65
2022/10/25 13:54:14;;;;;;;27.13;13.73;;;;;;;;;;6252987;28;20068;-65
2022/10/25 13:57:42;;;;;;;32.63;15.63;;;;;;;;;;6253356;28;20041;-63
2022/10/25 14:00:44;;;;;;;28.08;13.68;;;;;;;;;;6250493;28;20051;-63
2022/10/25 14:04:00;;;;;;;29.17;14.00;;;;;;;;;;6252180;28;20135;-65
2022/10/25 14:07:38;;;;;;;31.38;14.63;;;;;;;;;;6251629;28;20538;-66
2022/10/25 14:10:40;;;;;;;33.53;15.25;;;;;;;;;;6247065;28;20080;-66
2022/10/25 14:13:54;;;;;;;27.50;13.57;;;;;;;;;;6252316;28;20539;-63
2022/10/25 14:17:01;;;;;;;28.55;14.55;;;;;;;;;;6254663;28;20116;-65
2022/10/25 14:20:08;;;;;;;33.55;14.15;;;;;;;;;;6253184;28;20435;-67
2022/10/25 14:23:16;;;;;;;33.70;15.57;;;;;;;;;;6245962;28;20215;-67
2022/10/25 14:26:20;;;;;;;31.05;15.52;;;;;;;;;;6250952;28;20041;-68
2022/10/25 14:29:23;;;;;;;35.00;16.50;;;;;;;;;;6249829;28;20053;-66
2022/10/25 14:32:24;;;;;;;32.25;15.25;;;;;;;;;;6252173;28;20254;-68
2022/10/25 14:35:32;;;;;;;32.47;15.10;;;;;;;;;;6254174;28;20049;-67
2022/10/25 14:38:52;;;;;;;27.73;14.18;;;;;;;;;;6254541;28;20044;-67
2022/10/25 14:41:55;;;;;;;29.80;13.65;;;;;;;;;;6249553;28;20049;-64
2022/10/25 14:44:57;;;;;;;25.33;12.98;;;;;;;;;;6247844;28;20143;-65
2022/10/25 14:47:57;;;;;;;;;;;;;;;;;;6253696;28;20063;-62
2022/10/25 14:51:06;;;;;;;28.88;13.20;;;;;;;;;;6249449;28;20685;-66
2022/10/25 14:54:29;;;;;;;28.70;15.40;;;;;;;;;;6252119;28;20045;-67
2022/10/25 14:57:32;;;;;;;108.13;50.55;;;;;;;;;;6252103;28;20051;-64
2022/10/25 15:00:32;;;;;;;77.10;41.40;;;;;;;;;;6255020;28;20053;-65
2022/10/25 15:03:40;;;;;;;53.47;29.88;;;;;;;;;;6257230;28;20107;-64
2022/10/25 15:06:42;;;;;;;44.85;27.48;;;;;;;;;;6251269;28;20150;-67
2022/10/25 15:09:54;;;;;;;64.47;37.30;;;;;;;;;;6252478;28;20052;-68
2022/10/25 15:13:01;;;;;;;45.17;24.73;;;;;;;;;;6249960;28;20658;-65
2022/10/25 15:16:23;;;;;;;32.15;17.25;;;;;;;;;;6249857;28;20533;-66
2022/10/25 15:19:23;;;;;;;25.27;13.02;;;;;;;;;;6252614;28;20110;-65
2022/10/25 15:22:30;;;;;;;26.38;14.18;;;;;;;;;;6255791;28;20053;-63
2022/10/25 15:25:36;;;;;;;24.85;11.98;;;;;;;;;;6257741;28;20061;-65
2022/10/25 15:28:58;;;;;;;20.27;10.15;;;;;;;;;;6255292;28;20805;-66
2022/10/25 15:31:58;;;;;;;22.00;9.70;;;;;;;;;;6253191;28;20087;-62
2022/10/25 15:35:01;;;;;;;19.15;10.25;;;;;;;;;;6253352;28;20500;-65
2022/10/25 15:38:01;;;;;;;18.63;10.07;;;;;;;;;;6253366;28;20060;-63
2022/10/25 15:41:02;;;;;;;23.15;10.48;;;;;;;;;;6260136;28;20140;-67
2022/10/25 15:44:02;;;;;;;23.05;11.30;;;;;;;;;;6262756;28;20480;-67
2022/10/25 15:47:03;;;;;;;27.30;11.73;;;;;;;;;;6260675;28;20415;-62
2022/10/25 15:50:13;;;;;;;31.65;12.98;;;;;;;;;;6260671;28;20427;-65
2022/10/25 15:53:14;;;;;;;29.77;14.80;;;;;;;;;;6260304;28;20148;-64
2022/10/25 15:56:18;;;;;;;32.65;13.90;;;;;;;;;;6260575;28;20053;-64
2022/10/25 15:59:19;;;;;;;36.00;15.80;;;;;;;;;;6261442;28;20056;-65
2022/10/25 16:02:25;;;;;;;34.70;15.77;;;;;;;;;;6257495;28;20124;-66
2022/10/25 16:05:32;;;;;;;32.17;15.23;;;;;;;;;;6260992;28;20075;-66
2022/10/25 16:08:32;;;;;;;32.15;15.30;;;;;;;;;;6261415;28;20053;-66
2022/10/25 16:11:36;;;;;;;31.25;15.65;;;;;;;;;;6256311;28;20505;-65
2022/10/25 16:14:36;;;;;;;40.00;17.88;;;;;;;;;;6260298;28;20499;-65
2022/10/25 16:17:37;;;;;;;41.30;17.63;;;;;;;;;;6259325;28;20053;-65
2022/10/25 16:20:39;;;;;;;37.83;15.45;;;;;;;;;;6257933;28;20053;-67
2022/10/25 16:23:39;;;;;;;49.78;19.70;;;;;;;;;;6258955;28;20089;-63
2022/10/25 16:26:43;;;;;;;38.88;16.73;;;;;;;;;;6261101;28;20045;-64
2022/10/25 16:29:45;;;;;;;43.13;17.38;;;;;;;;;;6260332;28;20068;-63
2022/10/25 16:32:46;;;;;;;34.75;15.52;;;;;;;;;;6259841;28;20048;-68
2022/10/25 16:35:47;;;;;;;35.80;14.48;;;;;;;;;;6266706;28;20056;-66
2022/10/25 16:38:48;;;;;;;33.15;14.07;;;;;;;;;;6261921;28;20872;-68
2022/10/25 16:41:49;;;;;;;38.13;15.65;;;;;;;;;;6257671;28;20142;-64
2022/10/25 16:44:50;;;;;;;37.63;18.13;;;;;;;;;;6261341;28;20045;-63
2022/10/25 16:47:54;;;;;;;38.75;16.90;;;;;;;;;;6263555;28;20097;-68
2022/10/25 16:50:54;;;;;;;35.00;16.08;;;;;;;;;;6260162;28;20083;-65
2022/10/25 16:53:56;;;;;;;32.58;15.25;;;;;;;;;;6260128;28;20135;-67
2022/10/25 16:56:56;;;;;;;31.40;14.40;;;;;;;;;;6259781;28;20135;-66
2022/10/25 16:59:57;;;;;;;34.60;15.25;;;;;;;;;;6255779;28;20765;-66
2022/10/25 17:02:57;;;;;;;36.35;16.88;;;;;;;;;;6256428;28;20064;-65
2022/10/25 17:05:58;;;;;;;34.25;17.02;;;;;;;;;;6263293;28;20159;-65
2022/10/25 17:08:58;;;;;;;41.58;17.60;;;;;;;;;;6263809;28;20045;-67
2022/10/25 17:11:59;;;;;;;48.30;23.25;;;;;;;;;;6259299;28;20224;-66
2022/10/25 17:14:59;;;;;;;84.28;45.78;;;;;;;;;;6262620;28;20737;-66
2022/10/25 17:18:00;;;;;;;91.18;46.00;;;;;;;;;;6262428;28;20146;-67
2022/10/25 17:21:09;;;;;;;93.32;50.83;;;;;;;;;;6261909;28;20480;-67
2022/10/25 17:24:10;;;;;;;79.53;39.70;;;;;;;;;;6261677;28;20154;-66
2022/10/25 17:27:11;;;;;;;73.63;34.25;;;;;;;;;;6250855;28;20052;-67
2022/10/25 17:30:15;;;;;;;68.07;29.13;;;;;;;;;;6256529;28;20067;-66
2022/10/25 17:33:15;;;;;;;67.55;32.22;;;;;;;;;;6258595;28;20048;-67
2022/10/25 17:36:17;;;;;;;62.40;30.90;;;;;;;;;;6259620;28;20052;-67
2022/10/25 17:39:18;;;;;;;110.13;55.85;;;;;;;;;;6259326;28;20115;-69
2022/10/25 17:42:19;;;;;;;120.05;59.83;;;;;;;;;;6257286;28;20049;-66
2022/10/25 17:45:20;;;;;;;109.82;52.40;;;;;;;;;;6261797;28;20060;-65
2022/10/25 17:48:21;;;;;;;128.55;55.58;;;;;;;;;;6260124;28;20045;-66
2022/10/25 17:51:22;;;;;;;111.82;46.55;;;;;;;;;;6258718;28;20052;-66
2022/10/25 17:54:23;;;;;;;108.87;44.83;;;;;;;;;;6261739;28;20085;-66
2022/10/25 17:57:23;;;;;;;119.47;50.63;;;;;;;;;;6259224;28;20052;-63
2022/10/25 18:00:24;;;;;;;123.65;51.30;;;;;;;;;;6259396;28;20403;-65